Tiempo atmosférico en la estación meteorológica de Aldeanueva de Serrezuela, Segovia (1135 m.)



Fecha
DESCASC
Temp. máxima en grados centígrados (hora)
DESCASC
Temp. mínima en grados centígrados (hora)
DESCASC
Temp. media en grados centígrados
DESCASC
Racha de viento máxima en m/sg (hora)
DESCASC
Velocidad máxima media en intervalos de 10 minutos(hora)
DESCASC
Precipitaciones diarias en mm
DESCASC
Precipitaciones de 00:00 a 06:00 en mm
DESCASC
Precipitaciones de 06:00 a 12:00 en mm
DESCASC
Precipitaciones de 12:00 a 18:00 en mm
DESCASC
Precipitaciones de 18:00 a 24:00 en mm
DESCASC
17-10-2019 16 (16:50) 8.5 (06:40) 12.3 10.83 (10:40) 6.94 (08:40) 4.8 2 1.2 0.6 1
16-10-2019 16.3 (17:20) 6.2 (08:20) 11.2 11.39 (15:20) 7.22 (12:20) 0 0 0 0 0
15-10-2019 11.2 (17:10) 3.6 (05:20) 7.4 13.06 (06:20) 8.33 (02:00) 0 0 0 0 0
14-10-2019 17.3 (00:50) 4.5 (23:30) 10.9 18.61 (11:40) 12.78 (11:40) 8.6 0 0.4 5.2 3
13-10-2019 22.4 (15:40) 13.9 (00:00) 18.1 15.83 (15:10) 10.56 (15:10) 0 0 0 0 0
12-10-2019 24.7 (15:00) 16.4 (00:00) 20.6 15 (14:40) 10 (14:40) 0 0 0 0 0
10-10-2019 22.2 (17:30) 7.9 (00:00) 15.1 5.83 (14:00) 4.17 (03:40) 0 0 0 0 0
09-10-2019 19.3 (16:50) 9.8 (00:00) 14.5 6.39 (02:30) 4.72 (05:20) 0 0 0 0 0
08-10-2019 26.3 (15:50) 14.4 (00:00) 20.3 8.89 (16:50) 5.56 (16:50) 0 0 0 0 0
07-10-2019 22.3 (17:40) 10.7 (00:00) 16.5 5.28 (15:30) 3.06 (18:10) 0 0 0 0 0
06-10-2019 21.2 (17:40) 9.9 (00:00) 15.6 7.5 (05:30) 5 (11:30) 0 0 0 0 0
05-10-2019 23 (17:40) 12.9 (05:40) 17.9 6.67 (15:20) 4.17 (16:20) 0 0 0 0 0
04-10-2019 22 (16:10) 11.6 (00:00) 16.8 9.44 (15:20) 5.83 (15:30) 0 0 0 0 0
03-10-2019 21.1 (17:30) 9 (00:00) 15.1 8.33 (15:00) 5 (13:10) 0 0 0 0 0
02-10-2019 16.9 (17:30) 7.2 (00:00) 12 6.94 (01:30) 4.72 (11:30) 0 0 0 0 0
01-10-2019 20.3 (16:30) 12.8 (00:00) 16.5 11.39 (19:10) 7.78 (18:50) 0 0 0 0 0
30-09-2019 25.5 (17:30) 13.7 (00:00) 19.6 8.33 (23:50) 5.56 (23:59) 0 0 0 0 0
29-09-2019 24.7 (17:00) 14.1 (00:00) 19.4 10.83 (14:30) 6.67 (14:30) 0 0 0 0 0
28-09-2019 24.4 (17:40) 11.4 (00:00) 17.9 7.5 (15:50) 3.89 (15:50) 0 0 0 0 0
27-09-2019 22.7 (17:10) 11.9 (00:00) 17.3 9.17 (15:30) 5.83 (15:30) 0 0 0 0 0
26-09-2019 23.5 (17:00) 11.7 (00:00) 17.6 9.44 (16:50) 5.56 (17:10) 0 0 0 0 0
25-09-2019 17.9 (17:30) 8 (00:00) 12.9 9.44 (01:30) 5.83 (02:20) 0 0 0 0 0
24-09-2019 18.9 (17:30) 11.2 (00:00) 15 11.11 (14:30) 7.22 (11:50) 0 0 0 0 0
23-09-2019 19.4 (17:10) 8.9 (00:00) 14.1 7.78 (23:59) 5.28 (23:30) 0 0 0 0 0
22-09-2019 16.6 (17:40) 9.6 (00:00) 13.1 11.39 (04:30) 7.22 (04:30) 5.8 3.6 2.2 0 0
21-09-2019 18.6 (13:40) 13 (00:00) 15.8 11.67 (12:30) 7.5 (00:10) 0.8 0 0 0.6 0.2
20-09-2019 23.4 (15:40) 13.4 (00:00) 18.4 13.33 (23:30) 9.17 (23:30) 0.6 0 0 0 0.6
19-09-2019 24 (17:40) 13.2 (00:00) 18.6 6.39 (14:30) 3.89 (23:30) 0 0 0 0 0

Gráficas

Temp. máximas Temp. mínimas Temp. medias Precipitaciones Rachas de viento máximas Velocidades máximas media en intervalos de 10 minutos

Datos horarios

Fecha y hora oficial Temperatura (ºC) Velocidad del viento (km/h) Dirección del viento Racha (km/h) Dirección de racha Precipitación (mm) Presión (hPa) Tendencia (hPa) Humedad (%)
2019-10-18 23:00:00 11.2 9 Sudoeste 14 Sudoeste 0 -- -- 94
2019-10-18 22:00:00 11.3 6 Sudoeste 14 Sudoeste 0 -- -- 94
2019-10-18 21:00:00 11.5 9 Sudoeste 14 Sudoeste 0 -- -- 94
2019-10-18 20:00:00 11.6 10 Sudoeste 21 Oeste 0 -- -- 92
2019-10-18 19:00:00 12.3 12 Oeste 21 Oeste 0 -- -- 90
2019-10-18 18:00:00 12.9 12 Oeste 20 Sudoeste 0 -- -- 90
2019-10-18 17:00:00 13.1 14 Oeste 27 Oeste 0 -- -- 87
2019-10-18 16:00:00 13.1 18 Oeste 32 Oeste 0 -- -- 89
2019-10-18 15:00:00 13.1 25 Oeste 35 Sudoeste 0 -- -- 88
2019-10-18 14:00:00 12.6 21 Sudoeste 33 Sudoeste 0 -- -- 97
2019-10-18 13:00:00 12.3 19 Sudoeste 29 Sudoeste 0 -- -- 100
2019-10-18 12:00:00 11.3 17 Sudoeste 27 Oeste 0 -- -- 100
2019-10-18 11:00:00 10.8 18 Oeste 33 Oeste 0.8 -- -- 100
2019-10-18 10:00:00 11.1 15 Oeste 32 Oeste 0.6 -- -- 100
2019-10-18 09:00:00 11.2 18 Oeste 30 Oeste 0.6 -- -- 100
2019-10-18 08:00:00 11.9 17 Sudoeste 32 Sudoeste 1.2 -- -- 100
2019-10-18 07:00:00 12.2 18 Oeste 30 Oeste 2.4 -- -- 100
2019-10-18 06:00:00 12.1 18 Sudoeste 39 Sudoeste 0.8 -- -- 99
2019-10-18 05:00:00 12.4 27 Sudoeste 44 Sudoeste 0.2 -- -- 98
2019-10-18 04:00:00 12.5 27 Sudoeste 46 Sudoeste 0.8 -- -- 98
2019-10-18 03:00:00 12.6 25 Sudoeste 41 Sudoeste 0 -- -- 96
2019-10-18 02:00:00 12.4 23 Sudoeste 42 Sudoeste 0.2 -- -- 98
2019-10-18 01:00:00 12.7 24 Sudoeste 36 Sudoeste 2 -- -- 98
2019-10-18 00:00:00 12.7 15 Sudoeste 26 Sudoeste 1 -- -- 97
2019-10-17 23:00:00 13 14 Sudoeste 27 Sudoeste 0 -- -- 92
2019-10-17 22:00:00 13.2 15 Sudoeste 33 Sudoeste 0 -- -- 89
2019-10-17 21:00:00 13.4 18 Sudoeste 28 Sudoeste 0 -- -- 87
2019-10-17 20:00:00 13.6 12 Sudoeste 16 Sudoeste 0 -- -- 87
2019-10-17 19:00:00 15.2 12 Sudoeste 23 Oeste 0 -- -- 81
2019-10-17 18:00:00 15.7 13 Oeste 25 Oeste 0 -- -- 80
2019-10-17 17:00:00 15.6 18 Oeste 31 Oeste 0 -- -- 78
2019-10-17 16:00:00 14.3 21 Sudoeste 30 Oeste 0 -- -- 87
2019-10-17 15:00:00 13.7 17 Sudoeste 35 Oeste 0 -- -- 94
2019-10-17 14:00:00 12.8 21 Sudoeste 32 Oeste 0.6 -- -- 100
2019-10-17 13:00:00 11.8 22 Sudoeste 37 Sudoeste 0 -- -- 99
2019-10-17 12:00:00 11.4 21 Sudoeste 37 Sudoeste 0 -- -- 98
2019-10-17 11:00:00 10.9 22 Sudoeste 39 Sudoeste 0.2 -- -- 99
2019-10-17 10:00:00 10 24 Sudoeste 39 Sudoeste 0 -- -- 98
2019-10-17 09:00:00 9.9 23 Sudoeste 36 Sudoeste 0 -- -- 98
2019-10-17 08:00:00 9.6 20 Sudoeste 31 Sudoeste 0.2 -- -- 97
2019-10-17 07:00:00 8.8 17 Sur 27 Sur 0.8 -- -- 95
2019-10-17 06:00:00 8.6 16 Sudoeste 25 Sudoeste 2 -- -- 93
2019-10-17 05:00:00 9.6 11 Sudoeste 16 Sudoeste 0 -- -- 83
2019-10-17 04:00:00 9.5 8 Sudoeste 21 Sur 0 -- -- 80
2019-10-17 03:00:00 9.1 12 Sudoeste 19 Sudoeste 0 -- -- 83
2019-10-17 02:00:00 9.1 13 Sudoeste 20 Sudoeste 0 -- -- 83
2019-10-17 01:00:00 9.5 12 Sudoeste 22 Sudoeste 0 -- -- 80
2019-10-17 00:00:00 9.4 16 Sudoeste 27 Sur 0 -- -- 77
2019-10-16 23:00:00 10.8 12 Sudoeste 22 Sur 0 -- -- 66
2019-10-16 22:00:00 11.8 14 Sudoeste 21 Sudoeste 0 -- -- 60
2019-10-16 21:00:00 12.4 12 Sudoeste 22 Sudoeste 0 -- -- 52
2019-10-16 20:00:00 13.5 16 Sudoeste 22 Sudoeste 0 -- -- 45
2019-10-16 19:00:00 15.1 11 Sudoeste 29 Oeste 0 -- -- 38
2019-10-16 18:00:00 15.7 16 Sudoeste 32 Sudoeste 0 -- -- 36
2019-10-16 17:00:00 15.9 19 Sudoeste 37 Oeste 0 -- -- 33
2019-10-16 16:00:00 15.4 21 Sudoeste 41 Sudoeste 0 -- -- 32
2019-10-16 15:00:00 14.6 20 Oeste 39 Sudoeste 0 -- -- 48
2019-10-16 14:00:00 13.6 26 Sudoeste 38 Sudoeste 0 -- -- 49
2019-10-16 13:00:00 12.8 21 Sudoeste 37 Sudoeste 0 -- -- 60
2019-10-16 12:00:00 11.3 22 Sudoeste 38 Sudoeste 0 -- -- 69
2019-10-16 11:00:00 8.7 21 Sudoeste 35 Sudoeste 0 -- -- 83
2019-10-16 10:00:00 7.9 19 Sudoeste 32 Sudoeste 0 -- -- 86
2019-10-16 09:00:00 6.5 20 Sudoeste 29 Sudoeste 0 -- -- 88
2019-10-16 08:00:00 6.3 16 Sudoeste 26 Sudoeste 0 -- -- 87
2019-10-16 07:00:00 6.5 15 Sudoeste 24 Sudoeste 0 -- -- 85
2019-10-16 06:00:00 6.7 12 Sudoeste 25 Sudoeste 0 -- -- 85
2019-10-16 05:00:00 6.8 13 Sudoeste 27 Sudoeste 0 -- -- 85
2019-10-16 04:00:00 7.4 18 Sudoeste 26 Sudoeste 0 -- -- 79
2019-10-16 03:00:00 7.5 17 Sudoeste 26 Sudoeste 0 -- -- 78
2019-10-16 02:00:00 8.5 18 Sudoeste 26 Sudoeste 0 -- -- 73
2019-10-16 01:00:00 8.6 17 Sudoeste 26 Sudoeste 0 -- -- 71
2019-10-16 00:00:00 8.4 17 Sudoeste 24 Sudoeste 0 -- -- 71
2019-10-15 23:00:00 8.4 15 Sudoeste 22 Sudoeste 0 -- -- 71
2019-10-15 22:00:00 8 14 Sudoeste 21 Sudoeste 0 -- -- 71
2019-10-15 21:00:00 7.9 14 Sudoeste 20 Sudoeste 0 -- -- 70
2019-10-15 20:00:00 8.2 9 Sudoeste 22 Oeste 0 -- -- 69
2019-10-15 19:00:00 9.7 15 Oeste 31 Sudoeste 0 -- -- 63
2019-10-15 18:00:00 10.5 19 Oeste 34 Sudoeste 0 -- -- 61
2019-10-15 17:00:00 10.6 24 Oeste 36 Oeste 0 -- -- 60
2019-10-15 16:00:00 10.3 18 Oeste 28 Oeste 0 -- -- 66
2019-10-15 15:00:00 9.9 19 Oeste 32 Oeste 0 -- -- 67
2019-10-15 14:00:00 8.9 20 Oeste 34 Sudoeste 0 -- -- 74
2019-10-15 13:00:00 8.4 21 Sudoeste 36 Sudoeste 0 -- -- 80
2019-10-15 12:00:00 5.7 20 Oeste 33 Oeste 0 -- -- 95
2019-10-15 11:00:00 4.7 19 Sudoeste 29 Sudoeste 0 -- -- 100
2019-10-15 10:00:00 3.9 17 Oeste 33 Oeste 0 -- -- 100
2019-10-15 09:00:00 3.7 21 Oeste 34 Sudoeste 0 -- -- 99
2019-10-15 08:00:00 3.8 21 Sudoeste 38 Oeste 0 -- -- 99
2019-10-15 07:00:00 3.7 19 Oeste 47 Sudoeste 0 -- -- 98
2019-10-15 06:00:00 3.8 21 Sudoeste 37 Sudoeste 0 -- -- 98
2019-10-15 05:00:00 3.7 23 Oeste 43 Sudoeste 0 -- -- 98
2019-10-15 04:00:00 3.9 30 Sudoeste 44 Oeste 0 -- -- 98
2019-10-15 03:00:00 4.2 22 Sudoeste 44 Sudoeste 0 -- -- 97
2019-10-15 02:00:00 4.6 30 Sudoeste 45 Sudoeste 0 -- -- 97
2019-10-15 01:00:00 4.4 24 Sudoeste 42 Sudoeste 0 -- -- 96
2019-10-15 00:00:00 4.6 22 Sudoeste 52 Oeste 0 -- -- 96
2019-10-14 23:00:00 5.2 27 Sudoeste 42 Oeste 0.2 -- -- 96
2019-10-14 22:00:00 5.8 26 Sudoeste 41 Sudoeste 0.4 -- -- 97
2019-10-14 21:00:00 6 24 Sudoeste 40 Sudoeste 0.2 -- -- 96
2019-10-14 20:00:00 6.5 21 Sudoeste 43 Sudoeste 0.2 -- -- 96
2019-10-14 19:00:00 6.6 26 Sudoeste 59 Sudoeste 2 -- -- 94
2019-10-14 18:00:00 7.1 26 Sudoeste 54 Oeste 5 -- -- 96
2019-10-14 17:00:00 10.1 26 Oeste 51 Oeste 0 -- -- 82
2019-10-14 16:00:00 14.6 38 Oeste 59 Sudoeste 0 -- -- 57
2019-10-14 15:00:00 14.4 23 Sudoeste 39 Sudoeste 0 -- -- 72
2019-10-14 14:00:00 13.5 29 Sudoeste 43 Sudoeste 0 -- -- 75
2019-10-14 13:00:00 11.1 31 Sudoeste 45 Sudoeste 0.2 -- -- 89
2019-10-14 12:00:00 9.6 31 Sudoeste 67 Sudoeste 0.4 -- -- 94
2019-10-14 11:00:00 15.4 34 Sudoeste 66 Sudoeste 0 -- -- 60
2019-10-14 10:00:00 15.5 36 Sudoeste 58 Sudoeste 0 -- -- 60
2019-10-14 09:00:00 16.1 30 Sudoeste 49 Sudoeste 0 -- -- 58
2019-10-14 08:00:00 16.3 21 Sur 34 Sudoeste 0 -- -- 56
2019-10-14 07:00:00 16.7 23 Sur 40 Sur 0 -- -- 52
2019-10-14 06:00:00 15.9 12 Sur 40 Sudeste 0 -- -- 55
2019-10-14 05:00:00 16.5 27 Sur 49 Sur 0 -- -- 55
2019-10-14 04:00:00 16.7 23 Sur 44 Sur 0 -- -- 58
2019-10-14 03:00:00 17.1 25 Sur 40 Sur 0 -- -- 53
2019-10-14 02:00:00 17.1 25 Sur 40 Sur 0 -- -- 52
2019-10-14 01:00:00 17.3 22 Sur 37 Sur 0 -- -- 51
2019-10-14 00:00:00 16.6 21 Sur 32 Sur 0 -- -- 51
2019-10-13 23:00:00 16.2 19 Sur 28 Sur 0 -- -- 49
2019-10-13 22:00:00 16.2 19 Sur 31 Sur 0 -- -- 45
2019-10-13 21:00:00 16.2 19 Sur 30 Sur 0 -- -- 48
2019-10-13 20:00:00 16.9 15 Sur 34 Sur 0 -- -- 48
2019-10-13 19:00:00 19.5 21 Sur 46 Sudoeste 0 -- -- 46
2019-10-13 18:00:00 21.4 33 Sudoeste 53 Sudoeste 0 -- -- 30
2019-10-13 17:00:00 22.2 31 Sudoeste 54 Sudoeste 0 -- -- 29
2019-10-13 16:00:00 22.1 33 Sudoeste 57 Sudoeste 0 -- -- 31
2019-10-13 15:00:00 22.2 33 Sudoeste 54 Oeste 0 -- -- 29
2019-10-13 14:00:00 21.9 27 Sudoeste 48 Sudoeste 0 -- -- 30
2019-10-13 13:00:00 21.4 26 Sudoeste 40 Sudoeste 0 -- -- 32
2019-10-13 12:00:00 19 18 Sudoeste 41 Sudoeste 0 -- -- 51
2019-10-13 11:00:00 17.3 21 Sudoeste 31 Sudoeste 0 -- -- 54
2019-10-13 10:00:00 15.5 18 Sudoeste 31 Sur 0 -- -- 69
2019-10-13 09:00:00 14.1 21 Sur 37 Sur 0 -- -- 78
2019-10-13 08:00:00 14.2 24 Sur 44 Sur 0 -- -- 78
2019-10-13 07:00:00 14.5 29 Sur 46 Sur 0 -- -- 79
2019-10-13 06:00:00 15 28 Sur 47 Sur 0 -- -- 74
2019-10-13 05:00:00 15.2 28 Sur 47 Sur 0 -- -- 65
2019-10-13 04:00:00 15.9 25 Sur 37 Sur 0 -- -- 57
2019-10-13 03:00:00 16.4 26 Sur 40 Sur 0 -- -- 54
2019-10-13 02:00:00 16.7 26 Sur 52 Sur 0 -- -- 54
2019-10-13 01:00:00 16.8 31 Sur 49 Sur 0 -- -- 52
2019-10-13 00:00:00 16.4 31 Sur 51 Sudeste 0 -- -- 56
2019-10-12 23:00:00 17.9 27 Sur 45 Sudeste 0 -- -- 55
2019-10-12 22:00:00 18.4 22 Sur 42 Sur 0 -- -- 50
2019-10-12 21:00:00 19.4 23 Sur 46 Sur 0 -- -- 41
2019-10-12 20:00:00 19.7 20 Sur 37 Sur 0 -- -- 52
2019-10-12 19:00:00 20.7 20 Sur 39 Sur 0 -- -- 49
2019-10-12 18:00:00 23 21 Sur 44 Sudoeste 0 -- -- 40
2019-10-12 17:00:00 24.3 24 Sudoeste 48 Sudoeste 0 -- -- 32
2019-10-12 16:00:00 24.4 30 Sudoeste 54 Sudoeste 0 -- -- 32
2019-10-12 15:00:00 24.7 30 Sudoeste 54 Sudoeste 0 -- -- 32
2019-10-12 14:00:00 23.2 27 Sudoeste 42 Sudoeste 0 -- -- 35
2019-10-12 13:00:00 22.5 22 Sur 34 Sur 0 -- -- 43
2019-10-12 12:00:00 21.1 21 Sudeste 32 Sudeste 0 -- -- 52
2019-10-12 11:00:00 19 21 Sudeste 30 Sur 0 -- -- 54
2019-10-12 10:00:00 19.6 14 Sudoeste 41 Sudoeste 0 -- -- 47
2019-10-12 09:00:00 19.4 26 Sudoeste 41 Sur 0 -- -- 46
2019-10-12 08:00:00 17.6 12 Sudoeste 17 Sudoeste 0 -- -- 55
2019-10-12 07:00:00 18.7 10 Sudoeste 19 Sudoeste 0 -- -- 54
2019-10-12 06:00:00 19.1 14 Sur 27 Sur 0 -- -- 49
2019-10-12 05:00:00 19.1 19 Sur 27 Sur 0 -- -- 55
2019-10-12 04:00:00 18.7 17 Sur 24 Sur 0 -- -- 60
2019-10-12 03:00:00 18.5 15 Sur 31 Sudoeste 0 -- -- 55
2019-10-12 02:00:00 19.1 17 Sudoeste 33 Sudoeste 0 -- -- 54
2019-10-12 01:00:00 19.5 19 Sudoeste 32 Sudoeste 0 -- -- 55
2019-10-12 00:00:00 18.9 19 Sur 28 Sur 0 -- -- 60
2019-10-11 23:00:00 18.6 16 Sur 28 Sur 0 -- -- 63
2019-10-11 22:00:00 18.9 19 Sur 32 Sur 0 -- -- 65
2019-10-11 21:00:00 19.1 21 Sur 33 Sur 0 -- -- 66
2019-10-11 20:00:00 20.2 17 Sur 33 Sur 0 -- -- 60
2019-10-11 19:00:00 23 19 Sur 33 Sur 0 -- -- 51
2019-10-11 18:00:00 24.8 15 Sur 28 Sudoeste 0 -- -- 45
2019-10-11 17:00:00 25.1 14 Sur 35 Oeste 0 -- -- 42
2019-10-11 16:00:00 25.5 14 Sudoeste 30 Sudoeste 0 -- -- 40
2019-10-11 15:00:00 25.1 9 Sudoeste 23 Sudoeste 0 -- -- 41
2019-10-11 14:00:00 24.6 15 Oeste 23 Oeste 0 -- -- 43
2019-10-11 13:00:00 23.4 14 Sudoeste 26 Oeste 0 -- -- 47
2019-10-11 12:00:00 22.4 18 Sudoeste 27 Oeste 0 -- -- 52
2019-10-11 11:00:00 21.4 17 Sudoeste 25 Sudoeste 0 -- -- 54
2019-10-11 10:00:00 19.5 12 Sudoeste 18 Sudoeste 0 -- -- 60
2019-10-11 09:00:00 17.7 13 Sudoeste 19 Sudoeste 0 -- -- 62
2019-10-11 08:00:00 17.4 14 Sudoeste 22 Sudoeste 0 -- -- 61
2019-10-11 07:00:00 17.7 14 Sudoeste 20 Sudoeste 0 -- -- 59
2019-10-11 06:00:00 17 9 Sudoeste 18 Sudoeste 0 -- -- 59
2019-10-11 05:00:00 16.4 9 Sudoeste 15 Sudoeste 0 -- -- 57
2019-10-11 04:00:00 16.8 9 Sur 17 Sur 0 -- -- 53
2019-10-11 03:00:00 17.1 5 Sur 11 Sudoeste 0 -- -- 54
2019-10-11 02:00:00 16.7 10 Sur 12 Sudoeste 0 -- -- 53
2019-10-11 01:00:00 16.7 9 Sur 12 Sur 0 -- -- 51
2019-10-11 00:00:00 17.1 10 Sur 15 Sudeste 0 -- -- 57
2019-10-10 23:00:00 16.8 12 Sudeste 15 Sudeste 0 -- -- 68
2019-10-10 22:00:00 16 6 Este 12 Sudeste 0 -- -- 57
2019-10-10 21:00:00 16.2 8 Este 9 Este 0 -- -- 56
2019-10-10 20:00:00 18.1 4 Este 9 Nordeste 0 -- -- 52
2019-10-10 19:00:00 21 3 Norte 8 Norte 0 -- -- 45
2019-10-10 18:00:00 21.9 6 Nordeste 12 Nordeste 0 -- -- 43
2019-10-10 17:00:00 22.1 7 Norte 16 Norte 0 -- -- 43
2019-10-10 16:00:00 21.6 8 Norte 21 Norte 0 -- -- 44
2019-10-10 15:00:00 21 10 Norte 19 Nordeste 0 -- -- 45
2019-10-10 14:00:00 19.1 13 Nordeste 21 Norte 0 -- -- 50
2019-10-10 13:00:00 18.7 9 Norte 15 Norte 0 -- -- 51
2019-10-10 12:00:00 17.6 7 Nordeste 17 Nordeste 0 -- -- 52
2019-10-10 11:00:00 18.6 4 Este 14 Este 0 -- -- 39
2019-10-10 10:00:00 14.8 11 Este 18 Nordeste 0 -- -- 55
2019-10-10 09:00:00 10.2 8 Este 13 Este 0 -- -- 70
2019-10-10 08:00:00 8.3 9 Nordeste 14 Nordeste 0 -- -- 79
2019-10-10 07:00:00 10.8 3 Este 8 Este 0 -- -- 65
2019-10-10 06:00:00 9.1 9 Sudeste 10 Sudeste 0 -- -- 70
2019-10-10 05:00:00 9.6 8 Sudeste 12 Sudeste 0 -- -- 72
2019-10-10 04:00:00 12.4 10 Sudeste 20 Sudeste 0 -- -- 59
2019-10-10 03:00:00 11 10 Sudeste 13 Sudeste 0 -- -- 66
2019-10-10 02:00:00 10.6 10 Sudeste 14 Este 0 -- -- 69
2019-10-10 01:00:00 8.9 13 Sudeste 15 Este 0 -- -- 79
2019-10-10 00:00:00 10.5 3 Nordeste 12 Noroeste 0 -- -- 75
2019-10-09 23:00:00 9.9 3 Sudeste 9 Este 0 -- -- 75
2019-10-09 22:00:00 11.2 6 Este 9 Nordeste 0 -- -- 73
2019-10-09 21:00:00 12.3 6 Nordeste 13 Norte 0 -- -- 66
2019-10-09 20:00:00 14.1 9 Norte 15 Norte 0 -- -- 60
2019-10-09 19:00:00 16.5 11 Norte 21 Norte 0 -- -- 54
2019-10-09 18:00:00 18.3 9 Norte 18 Norte 0 -- -- 50
2019-10-09 17:00:00 19.2 9 Noroeste 21 Noroeste 0 -- -- 46
2019-10-09 16:00:00 18.9 11 Noroeste 20 Oeste 0 -- -- 53
2019-10-09 15:00:00 18.6 8 Noroeste 22 Oeste 0 -- -- 56
2019-10-09 14:00:00 18 14 Oeste 22 Noroeste 0 -- -- 57
2019-10-09 13:00:00 17.1 10 Oeste 17 Oeste 0 -- -- 66
2019-10-09 12:00:00 15.4 9 Oeste 14 Oeste 0 -- -- 77
2019-10-09 11:00:00 13.2 5 Oeste 13 Noroeste 0 -- -- 91
2019-10-09 10:00:00 12.1 5 Oeste 13 Noroeste 0 -- -- 96
2019-10-09 09:00:00 12.2 5 Sudoeste 10 Sudoeste 0 -- -- 92
2019-10-09 08:00:00 12.5 6 Sudoeste 17 Oeste 0 -- -- 90
2019-10-09 07:00:00 12.7 10 Sudoeste 19 Sudoeste 0 -- -- 87
2019-10-09 06:00:00 12.8 13 Sudoeste 22 Sudoeste 0 -- -- 83
2019-10-09 05:00:00 14 15 Sudoeste 21 Sur 0 -- -- 80
2019-10-09 04:00:00 14.5 14 Sudoeste 21 Sudoeste 0 -- -- 76
2019-10-09 03:00:00 15.5 14 Sudoeste 23 Sudoeste 0 -- -- 72
2019-10-09 02:00:00 16 14 Sudoeste 21 Sudoeste 0 -- -- 70
2019-10-09 01:00:00 17 14 Sudoeste 19 Sudoeste 0 -- -- 67
2019-10-09 00:00:00 17.9 12 Sudoeste 19 Sudoeste 0 -- -- 62
2019-10-08 23:00:00 18.1 12 Sudoeste 17 Oeste 0 -- -- 56
2019-10-08 22:00:00 19 8 Sudoeste 10 Sudoeste 0 -- -- 51
2019-10-08 21:00:00 20.4 4 Sudoeste 10 Noroeste 0 -- -- 45
2019-10-08 20:00:00 21.8 6 Noroeste 20 Oeste 0 -- -- 42
2019-10-08 19:00:00 24.6 15 Oeste 27 Oeste 0 -- -- 35
2019-10-08 18:00:00 25.6 18 Oeste 30 Oeste 0 -- -- 34
2019-10-08 17:00:00 25.9 14 Oeste 32 Oeste 0 -- -- 34
2019-10-08 16:00:00 26.2 15 Oeste 29 Oeste 0 -- -- 33
2019-10-08 15:00:00 25.4 17 Oeste 28 Oeste 0 -- -- 34
2019-10-08 14:00:00 24.8 13 Sudoeste 23 Sudoeste 0 -- -- 36
2019-10-08 13:00:00 24.3 14 Oeste 25 Oeste 0 -- -- 38
2019-10-08 12:00:00 23.4 10 Oeste 17 Oeste 0 -- -- 40
2019-10-08 11:00:00 22.3 3 Oeste 8 Noroeste 0 -- -- 43
2019-10-08 10:00:00 20.3 3 Sur 11 Sur 0 -- -- 49
2019-10-08 09:00:00 17.2 8 Sur 11 Sur 0 -- -- 53
2019-10-08 08:00:00 16.3 0 Calma -- -- 0 -- -- 56
2019-10-08 07:00:00 15.6 0 Calma 10 Sur 0 -- -- 60
2019-10-08 06:00:00 16.5 9 Sur 14 Sudeste 0 -- -- 59
2019-10-08 05:00:00 14.9 4 Sur 10 Sudeste 0 -- -- 63
2019-10-08 04:00:00 15.4 8 Sudeste 9 Sudeste 0 -- -- 67
2019-10-08 03:00:00 16 0 Calma 6 Sudeste 0 -- -- 60
2019-10-08 02:00:00 16.2 4 Sudeste 6 Sudeste 0 -- -- 56
2019-10-08 01:00:00 16 5 Sudeste 12 Este 0 -- -- 50
2019-10-08 00:00:00 15.2 9 Sudeste 12 Este 0 -- -- 51
2019-10-07 23:00:00 14.6 9 Este 12 Este 0 -- -- 54
2019-10-07 22:00:00 16.3 7 Este 9 Este 0 -- -- 50
2019-10-07 21:00:00 17.1 4 Este 7 Este 0 -- -- 50
2019-10-07 20:00:00 19.4 3 Norte 10 Norte 0 -- -- 45
2019-10-07 19:00:00 21.2 7 Norte 16 Noroeste 0 -- -- 41
2019-10-07 18:00:00 22.2 10 Noroeste 18 Oeste 0 -- -- 38
2019-10-07 17:00:00 21.6 8 Norte 17 Nordeste 0 -- -- 40
2019-10-07 16:00:00 21.1 10 Nordeste 19 Nordeste 0 -- -- 40
2019-10-07 15:00:00 20.8 7 Norte 17 Norte 0 -- -- 35
2019-10-07 14:00:00 19.7 8 Norte 16 Nordeste 0 -- -- 33
2019-10-07 13:00:00 19.4 9 Noroeste 16 Nordeste 0 -- -- 30
2019-10-07 12:00:00 18.3 5 Norte 11 Nordeste 0 -- -- 33
2019-10-07 11:00:00 17.4 4 Nordeste 10 Este 0 -- -- 36
2019-10-07 10:00:00 15.7 4 Este 8 Nordeste 0 -- -- 32
2019-10-07 09:00:00 12.9 3 Sudeste 6 Nordeste 0 -- -- 47
2019-10-07 08:00:00 11 3 Nordeste 4 Nordeste 0 -- -- 54
2019-10-07 07:00:00 10.7 3 Este 6 Sudeste 0 -- -- 62
2019-10-07 06:00:00 11.1 6 Este 8 Este 0 -- -- 68
2019-10-07 05:00:00 11.7 4 Este 5 Este 0 -- -- 78
2019-10-07 04:00:00 12.5 2 Nordeste 4 Nordeste 0 -- -- 75
2019-10-07 03:00:00 13.2 4 Sudoeste 5 Sur 0 -- -- 72
2019-10-07 02:00:00 13.5 0 Calma 5 Noroeste 0 -- -- 67
2019-10-07 01:00:00 14.4 3 Oeste 9 Sur 0 -- -- 59
2019-10-07 00:00:00 14.6 4 Sudoeste 7 Sudeste 0 -- -- 60
2019-10-06 23:00:00 14.4 0 Calma 11 Norte 0 -- -- 57
2019-10-06 22:00:00 15.1 6 Noroeste 14 Noroeste 0 -- -- 54
2019-10-06 21:00:00 16.2 8 Noroeste 14 Noroeste 0 -- -- 52
2019-10-06 20:00:00 17.8 7 Noroeste 17 Noroeste 0 -- -- 46
2019-10-06 19:00:00 20.3 10 Noroeste 21 Noroeste 0 -- -- 42
2019-10-06 18:00:00 21.2 13 Oeste 22 Oeste 0 -- -- 41
2019-10-06 17:00:00 20.7 14 Oeste 24 Oeste 0 -- -- 41
2019-10-06 16:00:00 20.8 15 Oeste 25 Oeste 0 -- -- 41
2019-10-06 15:00:00 19.9 12 Sudoeste 22 Sudoeste 0 -- -- 42
2019-10-06 14:00:00 18.3 10 Oeste 22 Sudoeste 0 -- -- 52
2019-10-06 13:00:00 15.8 14 Oeste 22 Sudoeste 0 -- -- 58
2019-10-06 12:00:00 14.6 13 Oeste 26 Oeste 0 -- -- 68
2019-10-06 11:00:00 15.4 15 Sudoeste 24 Sudoeste 0 -- -- 68
2019-10-06 10:00:00 12.2 15 Sudoeste 23 Sudoeste 0 -- -- 81
2019-10-06 09:00:00 10.1 10 Oeste 18 Sudoeste 0 -- -- 83
2019-10-06 08:00:00 10.6 13 Sudoeste 18 Sudoeste 0 -- -- 83
2019-10-06 07:00:00 10.6 12 Sudoeste 21 Sudoeste 0 -- -- 82
2019-10-06 06:00:00 11.1 14 Sudoeste 27 Sudoeste 0 -- -- 77
2019-10-06 05:00:00 11.9 16 Sudoeste 23 Sudoeste 0 -- -- 69
2019-10-06 04:00:00 12.3 14 Sudoeste 19 Sudoeste 0 -- -- 66
2019-10-06 03:00:00 13.4 13 Sudoeste 18 Sudoeste 0 -- -- 63
2019-10-06 02:00:00 14 12 Sudoeste 16 Sudoeste 0 -- -- 61
2019-10-06 01:00:00 14.5 8 Sudoeste 11 Sudoeste 0 -- -- 63
2019-10-06 00:00:00 15.3 3 Sudoeste 8 Sudoeste 0 -- -- 59
2019-10-05 23:00:00 14.9 7 Sudoeste 10 Sudoeste 0 -- -- 61
2019-10-05 22:00:00 15.7 8 Sudoeste 10 Sudoeste 0 -- -- 59
2019-10-05 21:00:00 16.8 5 Sudoeste 6 Sudoeste 0 -- -- 58
2019-10-05 20:00:00 19.1 3 Oeste 18 Oeste 0 -- -- 51
2019-10-05 19:00:00 22 11 Oeste 21 Oeste 0 -- -- 42
2019-10-05 18:00:00 22.8 13 Oeste 23 Oeste 0 -- -- 37
2019-10-05 17:00:00 22.9 15 Oeste 24 Oeste 0 -- -- 39
2019-10-05 16:00:00 22.2 9 Oeste 24 Oeste 0 -- -- 44
2019-10-05 15:00:00 21.4 15 Oeste 24 Oeste 0 -- -- 44
2019-10-05 14:00:00 20.7 6 Sudoeste 21 Sudoeste 0 -- -- 55
2019-10-05 13:00:00 19.4 11 Noroeste 20 Oeste 0 -- -- 60
2019-10-05 12:00:00 18.7 8 Oeste 14 Noroeste 0 -- -- 65
2019-10-05 11:00:00 17.6 6 Oeste 11 Sudoeste 0 -- -- 69
2019-10-05 10:00:00 16 4 Sudoeste 6 Sudoeste 0 -- -- 75
2019-10-05 09:00:00 14.1 5 Sudoeste 10 Sudoeste 0 -- -- 78
2019-10-05 08:00:00 13.5 7 Sur 8 Sur 0 -- -- 80
2019-10-05 07:00:00 13.5 5 Sudoeste 6 Sudoeste 0 -- -- 80
2019-10-05 06:00:00 13.4 0 Calma 5 Sudoeste 0 -- -- 81
2019-10-05 05:00:00 14.1 0 Calma 4 Sudoeste 0 -- -- 78
2019-10-05 04:00:00 14.7 5 Sudoeste 8 Sur 0 -- -- 74
2019-10-05 03:00:00 15.1 5 Sur 9 Sur 0 -- -- 73
2019-10-05 02:00:00 14.7 8 Sur 9 Sur 0 -- -- 74
2019-10-05 01:00:00 14.8 7 Sur 8 Sur 0 -- -- 75
2019-10-05 00:00:00 15.1 4 Sur 6 Sudoeste 0 -- -- 74
2019-10-04 23:00:00 14.6 4 Sudoeste 8 Sudoeste 0 -- -- 76
2019-10-04 22:00:00 14.5 8 Sudoeste 13 Oeste 0 -- -- 76
2019-10-04 21:00:00 15.7 9 Sudoeste 15 Oeste 0 -- -- 71
2019-10-04 20:00:00 18.1 12 Oeste 30 Oeste 0 -- -- 64
2019-10-04 19:00:00 21 18 Oeste 30 Oeste 0 -- -- 52
2019-10-04 18:00:00 21.8 19 Sudoeste 31 Sudoeste 0 -- -- 46
2019-10-04 17:00:00 22 17 Sudoeste 31 Sudoeste 0 -- -- 47
2019-10-04 16:00:00 21.9 13 Oeste 34 Sudoeste 0 -- -- 53
2019-10-04 15:00:00 20.9 19 Oeste 31 Sudoeste 0 -- -- 51
2019-10-04 14:00:00 19.4 19 Oeste 29 Oeste 0 -- -- 61
2019-10-04 13:00:00 18.7 14 Oeste 26 Oeste 0 -- -- 65
2019-10-04 12:00:00 17.1 15 Sudoeste 24 Oeste 0 -- -- 72
2019-10-04 11:00:00 17.3 13 Sudoeste 18 Sudoeste 0 -- -- 69
2019-10-04 10:00:00 14.4 9 Sudoeste 15 Sudoeste 0 -- -- 84
2019-10-04 09:00:00 12 10 Sudoeste 18 Sudoeste 0 -- -- 88
2019-10-04 08:00:00 11.8 9 Sudoeste 21 Sur 0 -- -- 80
2019-10-04 07:00:00 13.3 15 Sudoeste 28 Sur 0 -- -- 74
2019-10-04 06:00:00 13.7 18 Sur 29 Sur 0 -- -- 69
2019-10-04 05:00:00 13.4 17 Sudoeste 26 Sur 0 -- -- 65
2019-10-04 04:00:00 13.8 17 Sudoeste 24 Sudoeste 0 -- -- 62
2019-10-04 03:00:00 14.6 12 Sudoeste 21 Sudoeste 0 -- -- 55
2019-10-04 02:00:00 14.7 14 Sudoeste 19 Sudoeste 0 -- -- 50
2019-10-04 01:00:00 15 10 Sudoeste 12 Sudoeste 0 -- -- 50
2019-10-04 00:00:00 14.8 8 Sudoeste 10 Sudoeste 0 -- -- 53
2019-10-03 23:00:00 15.1 7 Sudoeste 11 Sudoeste 0 -- -- 51
2019-10-03 22:00:00 15.1 8 Sudoeste 10 Sudoeste 0 -- -- 49
2019-10-03 21:00:00 15.5 9 Sudoeste 10 Sudoeste 0 -- -- 48
2019-10-03 20:00:00 17.7 8 Sudoeste 19 Oeste 0 -- -- 43
2019-10-03 19:00:00 20.4 12 Oeste 22 Oeste 0 -- -- 38
2019-10-03 18:00:00 20.9 12 Oeste 26 Noroeste 0 -- -- 36
2019-10-03 17:00:00 20.9 13 Oeste 29 Oeste 0 -- -- 38
2019-10-03 16:00:00 20.4 15 Oeste 29 Oeste 0 -- -- 39
2019-10-03 15:00:00 19.5 18 Oeste 30 Oeste 0 -- -- 41
2019-10-03 14:00:00 18.6 17 Oeste 28 Oeste 0 -- -- 45
2019-10-03 13:00:00 17.3 17 Oeste 26 Oeste 0 -- -- 49
2019-10-03 12:00:00 15.9 15 Sudoeste 22 Sudoeste 0 -- -- 52
2019-10-03 11:00:00 14.8 13 Oeste 19 Oeste 0 -- -- 57
2019-10-03 10:00:00 12.8 10 Sudoeste 17 Sudoeste 0 -- -- 65
2019-10-03 09:00:00 11 12 Sudoeste 17 Sudoeste 0 -- -- 67
2019-10-03 08:00:00 11 10 Sudoeste 15 Sudoeste 0 -- -- 68
2019-10-03 07:00:00 11.1 10 Sudoeste 13 Sudoeste 0 -- -- 67
2019-10-03 06:00:00 11 3 Sudoeste 4 Sudoeste 0 -- -- 67
2019-10-03 05:00:00 11 0 Calma 10 Sur 0 -- -- 67
2019-10-03 04:00:00 11 5 Sur 7 Sur 0 -- -- 68
2019-10-03 03:00:00 9.8 5 Este 10 Este 0 -- -- 72
2019-10-03 02:00:00 9.9 9 Este 12 Sudeste 0 -- -- 71
2019-10-03 01:00:00 9.4 10 Este 12 Este 0 -- -- 73
2019-10-03 00:00:00 9.5 8 Este 13 Este 0 -- -- 76
2019-10-02 23:00:00 10.4 8 Este 14 Este 0 -- -- 72
2019-10-02 22:00:00 10.2 8 Este 12 Este 0 -- -- 72
2019-10-02 21:00:00 12 6 Nordeste 12 Norte 0 -- -- 65
2019-10-02 20:00:00 14.3 6 Norte 16 Norte 0 -- -- 57
2019-10-02 19:00:00 16.2 8 Norte 17 Norte 0 -- -- 52
2019-10-02 18:00:00 16.8 12 Norte 22 Norte 0 -- -- 49
2019-10-02 17:00:00 16.4 7 Norte 24 Nordeste 0 -- -- 50
2019-10-02 16:00:00 16.3 10 Norte 21 Norte 0 -- -- 54
2019-10-02 15:00:00 15.1 9 Norte 18 Norte 0 -- -- 57
2019-10-02 14:00:00 14.5 9 Noroeste 21 Norte 0 -- -- 60
2019-10-02 13:00:00 13.3 11 Oeste 21 Oeste 0 -- -- 68
2019-10-02 12:00:00 12 14 Oeste 24 Sudoeste 0 -- -- 77
2019-10-02 11:00:00 10.3 12 Sudoeste 19 Sudoeste 0 -- -- 85
2019-10-02 10:00:00 8.6 14 Sudoeste 19 Sudoeste 0 -- -- 95
2019-10-02 09:00:00 7.8 10 Sudoeste 20 Sudoeste 0 -- -- 97
2019-10-02 08:00:00 7.3 15 Sudoeste 23 Sudoeste 0 -- -- 97
2019-10-02 07:00:00 7.4 14 Sudoeste 22 Sudoeste 0 -- -- 96
2019-10-02 06:00:00 7.8 13 Sudoeste 18 Sudoeste 0 -- -- 94
2019-10-02 05:00:00 8.1 9 Sudoeste 19 Oeste 0 -- -- 90
2019-10-02 04:00:00 9.2 15 Sudoeste 21 Sudoeste 0 -- -- 86
2019-10-02 03:00:00 9.8 12 Sudoeste 22 Oeste 0 -- -- 81
2019-10-02 02:00:00 11 16 Sudoeste 25 Oeste 0 -- -- 74
2019-10-02 01:00:00 11.8 14 Oeste 23 Oeste 0 -- -- 69
2019-10-02 00:00:00 13 15 Oeste 33 Oeste 0 -- -- 64
2019-10-01 23:00:00 14.3 22 Oeste 33 Oeste 0 -- -- 61
2019-10-01 22:00:00 15.4 23 Oeste 32 Sudoeste 0 -- -- 58
2019-10-01 21:00:00 15.7 19 Sudoeste 31 Sudoeste 0 -- -- 58
2019-10-01 20:00:00 17 18 Oeste 41 Oeste 0 -- -- 56
2019-10-01 19:00:00 18.9 25 Oeste 39 Oeste 0 -- -- 54
2019-10-01 18:00:00 19.5 24 Oeste 40 Oeste 0 -- -- 50
2019-10-01 17:00:00 19.5 23 Oeste 40 Oeste 0 -- -- 55
2019-10-01 16:00:00 19 22 Oeste 40 Oeste 0 -- -- 58
2019-10-01 15:00:00 18.9 22 Oeste 37 Oeste 0 -- -- 58
2019-10-01 14:00:00 17.8 23 Oeste 37 Sudoeste 0 -- -- 63
2019-10-01 13:00:00 16.9 21 Sudoeste 33 Sudoeste 0 -- -- 69
2019-10-01 12:00:00 15 21 Sudoeste 35 Sudoeste 0 -- -- 79
2019-10-01 11:00:00 14.6 20 Sudoeste 33 Sudoeste 0 -- -- 83
2019-10-01 10:00:00 14.3 18 Sudoeste 27 Sudoeste 0 -- -- 80
2019-10-01 09:00:00 13.9 12 Sudoeste 20 Sudoeste 0 -- -- 81
2019-10-01 08:00:00 12.8 15 Sudoeste 31 Oeste 0 -- -- 75
2019-10-01 07:00:00 14.5 12 Sudoeste 30 Sudoeste 0 -- -- 59
2019-10-01 06:00:00 15.6 17 Sudoeste 27 Sudoeste 0 -- -- 48
2019-10-01 05:00:00 15.8 14 Sudoeste 22 Sudoeste 0 -- -- 47
2019-10-01 04:00:00 16.5 14 Sudoeste 24 Sudoeste 0 -- -- 41
2019-10-01 03:00:00 16.5 12 Sudoeste 22 Sudoeste 0 -- -- 41
2019-10-01 02:00:00 17.3 15 Sudoeste 24 Sudoeste 0 -- -- 40
2019-10-01 01:00:00 18 17 Sudoeste 26 Sudoeste 0 -- -- 39
2019-10-01 00:00:00 19.2 20 Sudoeste 30 Sudoeste 0 -- -- 43
2019-09-30 23:00:00 18.6 10 Sur 12 Sur 0 -- -- 46
2019-09-30 22:00:00 19.2 4 Sur 11 Sudoeste 0 -- -- 44
2019-09-30 21:00:00 19.1 5 Sur 9 Sudoeste 0 -- -- 42
2019-09-30 20:00:00 22.3 4 Sudoeste 14 Oeste 0 -- -- 38
2019-09-30 19:00:00 24.5 11 Oeste 22 Oeste 0 -- -- 36
2019-09-30 18:00:00 25.3 14 Oeste 26 Oeste 0 -- -- 33
2019-09-30 17:00:00 25 12 Oeste 26 Sudoeste 0 -- -- 35
2019-09-30 16:00:00 24.7 15 Oeste 25 Oeste 0 -- -- 35
2019-09-30 15:00:00 24.2 10 Sudoeste 22 Oeste 0 -- -- 37
2019-09-30 14:00:00 23 12 Oeste 19 Sudoeste 0 -- -- 41
2019-09-30 13:00:00 20.8 7 Norte 14 Norte 0 -- -- 60
2019-09-30 12:00:00 19.9 4 Norte 13 Oeste 0 -- -- 66
2019-09-30 11:00:00 18.7 6 Norte 10 Norte 0 -- -- 69
2019-09-30 10:00:00 17.6 2 Nordeste 5 Nordeste 0 -- -- 72
2019-09-30 09:00:00 14.1 3 Sur 6 Sudoeste 0 -- -- 85
2019-09-30 08:00:00 13.7 6 Sudoeste 9 Sudoeste 0 -- -- 83
2019-09-30 07:00:00 14 8 Sudoeste 11 Sur 0 -- -- 80
2019-09-30 06:00:00 14.2 9 Sur 13 Sur 0 -- -- 76
2019-09-30 05:00:00 14.2 8 Sudoeste 10 Sudoeste 0 -- -- 78
2019-09-30 04:00:00 14.8 8 Sudoeste 9 Sudoeste 0 -- -- 76
2019-09-30 03:00:00 15.1 6 Sudoeste 10 Oeste 0 -- -- 69
2019-09-30 02:00:00 16.3 4 Sudoeste 13 Sudoeste 0 -- -- 62
2019-09-30 01:00:00 17 8 Sudoeste 14 Sudoeste 0 -- -- 53
2019-09-30 00:00:00 17.7 10 Sudoeste 18 Sudoeste 0 -- -- 42
2019-09-29 23:00:00 18.6 12 Sudoeste 20 Sudoeste 0 -- -- 34
2019-09-29 22:00:00 19.3 15 Sudoeste 20 Sudoeste 0 -- -- 27
2019-09-29 21:00:00 19.2 13 Sudoeste 17 Sudoeste 0 -- -- 28
2019-09-29 20:00:00 21.5 9 Sudoeste 22 Oeste 0 -- -- 33
2019-09-29 19:00:00 24 15 Oeste 30 Sudoeste 0 -- -- 29
2019-09-29 18:00:00 24.6 15 Oeste 32 Oeste 0 -- -- 26
2019-09-29 17:00:00 24.7 19 Sudoeste 33 Oeste 0 -- -- 27
2019-09-29 16:00:00 24.3 17 Oeste 36 Sudoeste 0 -- -- 28
2019-09-29 15:00:00 23.4 22 Oeste 39 Oeste 0 -- -- 32
2019-09-29 14:00:00 22.4 23 Oeste 36 Sudoeste 0 -- -- 35
2019-09-29 13:00:00 22.1 18 Oeste 28 Oeste 0 -- -- 38
2019-09-29 12:00:00 21.4 18 Oeste 29 Oeste 0 -- -- 35
2019-09-29 11:00:00 20.4 15 Sudoeste 26 Sudoeste 0 -- -- 36
2019-09-29 10:00:00 17.7 14 Sudoeste 18 Sudoeste 0 -- -- 38
2019-09-29 09:00:00 15.1 12 Sudoeste 21 Sur 0 -- -- 47
2019-09-29 08:00:00 14.6 13 Sudoeste 24 Sur 0 -- -- 48
2019-09-29 07:00:00 15.4 16 Sudoeste 26 Sur 0 -- -- 46
2019-09-29 06:00:00 17 15 Sur 21 Sur 0 -- -- 40
2019-09-29 05:00:00 17.1 15 Sur 21 Sur 0 -- -- 37
2019-09-29 04:00:00 17.4 11 Sur 16 Sudoeste 0 -- -- 38
2019-09-29 03:00:00 17.4 12 Sudoeste 15 Sur 0 -- -- 39
2019-09-29 02:00:00 18.1 14 Sur 17 Sudoeste 0 -- -- 36
2019-09-29 01:00:00 17.3 13 Sur 15 Sudoeste 0 -- -- 38
2019-09-29 00:00:00 16.2 0 Calma -- -- 0 -- -- 45
2019-09-28 23:00:00 18.6 0 Calma -- -- 0 -- -- 38
2019-09-28 22:00:00 18.7 0 Calma -- -- 0 -- -- 34
2019-09-28 21:00:00 19 0 Calma 7 Oeste 0 -- -- 30
2019-09-28 20:00:00 22.4 3 Oeste 15 Oeste 0 -- -- 30
2019-09-28 19:00:00 24 9 Oeste 21 Oeste 0 -- -- 28
2019-09-28 18:00:00 24.3 9 Oeste 25 Sudoeste 0 -- -- 31
2019-09-28 17:00:00 24 8 Oeste 24 Oeste 0 -- -- 36
2019-09-28 16:00:00 23.6 8 Sudoeste 27 Sudoeste 0 -- -- 37
2019-09-28 15:00:00 22.7 13 Sudoeste 23 Oeste 0 -- -- 37
2019-09-28 14:00:00 21.6 10 Oeste 18 Oeste 0 -- -- 43
2019-09-28 13:00:00 20.2 3 Nordeste 14 Oeste 0 -- -- 58
2019-09-28 12:00:00 18.6 5 Norte 13 Norte 0 -- -- 65
2019-09-28 11:00:00 17.3 0 Calma -- -- 0 -- -- 68
2019-09-28 10:00:00 16.3 0 Calma -- -- 0 -- -- 70
2019-09-28 09:00:00 13 0 Calma 3 Sudoeste 0 -- -- 83
2019-09-28 08:00:00 11.9 3 Sur 5 Sur 0 -- -- 83
2019-09-28 07:00:00 12.7 5 Sur 6 Sudoeste 0 -- -- 79
2019-09-28 06:00:00 12.2 6 Sur 9 Sudoeste 0 -- -- 83
2019-09-28 05:00:00 11.8 5 Oeste 15 Sudoeste 0 -- -- 83
2019-09-28 04:00:00 12.3 11 Sur 18 Sur 0 -- -- 82
2019-09-28 03:00:00 12.5 14 Sur 19 Sur 0 -- -- 80
2019-09-28 02:00:00 13.4 8 Sudoeste 10 Sudoeste 0 -- -- 76
2019-09-28 01:00:00 14.1 6 Sudoeste 12 Sudoeste 0 -- -- 73
2019-09-28 00:00:00 14.9 10 Sudoeste 25 Oeste 0 -- -- 68
2019-09-27 23:00:00 16.1 13 Sudoeste 19 Sudoeste 0 -- -- 58
2019-09-27 22:00:00 16.5 10 Sudoeste 14 Sudoeste 0 -- -- 49
2019-09-27 21:00:00 16.7 11 Sudoeste 14 Sudoeste 0 -- -- 44
2019-09-27 20:00:00 19.4 7 Oeste 22 Oeste 0 -- -- 37
2019-09-27 19:00:00 21.7 14 Oeste 27 Oeste 0 -- -- 32
2019-09-27 18:00:00 22.4 17 Oeste 30 Oeste 0 -- -- 30
2019-09-27 17:00:00 22.4 21 Oeste 31 Sudoeste 0 -- -- 29
2019-09-27 16:00:00 21.9 18 Oeste 33 Oeste 0 -- -- 32
2019-09-27 15:00:00 20.9 20 Oeste 30 Oeste 0 -- -- 33
2019-09-27 14:00:00 20.1 16 Sudoeste 27 Sudoeste 0 -- -- 42
2019-09-27 13:00:00 19 18 Sudoeste 29 Sudoeste 0 -- -- 40
2019-09-27 12:00:00 18.3 17 Sudoeste 23 Oeste 0 -- -- 48
2019-09-27 11:00:00 17.4 13 Sudoeste 23 Sudoeste 0 -- -- 53
2019-09-27 10:00:00 15.6 9 Sudoeste 18 Sudoeste 0 -- -- 61
2019-09-27 09:00:00 12.8 12 Sudoeste 19 Sur 0 -- -- 68
2019-09-27 08:00:00 12.1 11 Sudoeste 20 Sudoeste 0 -- -- 66
2019-09-27 07:00:00 13.2 13 Sudoeste 19 Sudoeste 0 -- -- 65
2019-09-27 06:00:00 12.7 13 Sur 17 Sur 0 -- -- 60
2019-09-27 05:00:00 13 12 Sudoeste 15 Sur 0 -- -- 55
2019-09-27 04:00:00 13.8 11 Sudoeste 19 Sur 0 -- -- 50
2019-09-27 03:00:00 14.9 14 Sudoeste 18 Sudoeste 0 -- -- 47
2019-09-27 02:00:00 15.8 14 Sudoeste 18 Sudoeste 0 -- -- 43
2019-09-27 01:00:00 16.7 13 Sudoeste 18 Sudoeste 0 -- -- 40
2019-09-27 00:00:00 16.5 11 Sudoeste 13 Sudoeste 0 -- -- 44
2019-09-26 23:00:00 16.4 9 Sudoeste 10 Sudoeste 0 -- -- 45
2019-09-26 22:00:00 16.7 5 Sudoeste 8 Sudoeste 0 -- -- 44
2019-09-26 21:00:00 17.6 6 Sudoeste 6 Sudoeste 0 -- -- 43
2019-09-26 20:00:00 20.7 5 Oeste 23 Oeste 0 -- -- 37
2019-09-26 19:00:00 22.5 13 Oeste 28 Oeste 0 -- -- 33
2019-09-26 18:00:00 23.2 15 Oeste 32 Oeste 0 -- -- 34
2019-09-26 17:00:00 23.5 19 Oeste 34 Oeste 0 -- -- 38
2019-09-26 16:00:00 22.8 18 Oeste 33 Oeste 0 -- -- 44
2019-09-26 15:00:00 22.5 18 Sudoeste 29 Oeste 0 -- -- 44
2019-09-26 14:00:00 21.7 13 Sudoeste 24 Sudoeste 0 -- -- 49
2019-09-26 13:00:00 20.7 13 Sudoeste 18 Sudoeste 0 -- -- 48
2019-09-26 12:00:00 18.8 9 Sudoeste 18 Sudoeste 0 -- -- 56
2019-09-26 11:00:00 16.6 8 Oeste 15 Sudoeste 0 -- -- 67
2019-09-26 10:00:00 14.9 11 Sudoeste 15 Sudoeste 0 -- -- 72
2019-09-26 09:00:00 12.3 7 Sudoeste 10 Sudoeste 0 -- -- 82
2019-09-26 08:00:00 11.7 8 Sudoeste 10 Sudoeste 0 -- -- 84
2019-09-26 07:00:00 11.8 9 Sudoeste 15 Sur 0 -- -- 81
2019-09-26 06:00:00 11.8 11 Sudoeste 16 Sur 0 -- -- 75
2019-09-26 05:00:00 12.3 11 Sudoeste 15 Sudoeste 0 -- -- 72
2019-09-26 04:00:00 13.2 13 Sudoeste 18 Sudoeste 0 -- -- 68
2019-09-26 03:00:00 13.6 13 Sudoeste 18 Sudoeste 0 -- -- 67
2019-09-26 02:00:00 13.9 13 Sur 17 Sur 0 -- -- 65
2019-09-26 01:00:00 13.5 11 Sudoeste 13 Sur 0 -- -- 67
2019-09-26 00:00:00 12.9 10 Sudoeste 12 Sur 0 -- -- 69
2019-09-25 23:00:00 12.9 8 Sudoeste 9 Sur 0 -- -- 70
2019-09-25 22:00:00 13.5 3 Sudoeste 6 Sudoeste 0 -- -- 69
2019-09-25 21:00:00 14.4 4 Sudoeste 7 Oeste 0 -- -- 65
2019-09-25 20:00:00 15.6 5 Oeste 15 Oeste 0 -- -- 62
2019-09-25 19:00:00 17.1 8 Oeste 19 Oeste 0 -- -- 59
2019-09-25 18:00:00 17.7 9 Oeste 19 Oeste 0 -- -- 55
2019-09-25 17:00:00 17.7 12 Oeste 27 Oeste 0 -- -- 55
2019-09-25 16:00:00 17.2 10 Oeste 23 Oeste 0 -- -- 59
2019-09-25 15:00:00 16 13 Oeste 26 Oeste 0 -- -- 61
2019-09-25 14:00:00 14.8 15 Oeste 24 Sudoeste 0 -- -- 63
2019-09-25 13:00:00 13.7 15 Oeste 26 Sudoeste 0 -- -- 69
2019-09-25 12:00:00 12 14 Oeste 24 Oeste 0 -- -- 79
2019-09-25 11:00:00 10.9 15 Oeste 24 Oeste 0 -- -- 87
2019-09-25 10:00:00 9.5 14 Sudoeste 24 Sudoeste 0 -- -- 94
2019-09-25 09:00:00 8.4 11 Sudoeste 18 Sudoeste 0 -- -- 98
2019-09-25 08:00:00 8.3 13 Sudoeste 21 Sudoeste 0 -- -- 97
2019-09-25 07:00:00 9 15 Sudoeste 22 Sudoeste 0 -- -- 96
2019-09-25 06:00:00 9.4 12 Sudoeste 21 Sudoeste 0 -- -- 93
2019-09-25 05:00:00 10 15 Sudoeste 23 Oeste 0 -- -- 89
2019-09-25 04:00:00 11.1 15 Sudoeste 27 Oeste 0 -- -- 86
2019-09-25 03:00:00 11.8 16 Oeste 34 Sudoeste 0 -- -- 83
2019-09-25 02:00:00 12.7 19 Oeste 34 Oeste 0 -- -- 81
2019-09-25 01:00:00 13.6 20 Oeste 32 Oeste 0 -- -- 78
2019-09-25 00:00:00 14.5 16 Oeste 30 Oeste 0 -- -- 87
2019-09-24 23:00:00 15.1 21 Sudoeste 36 Sudoeste 0 -- -- 90
2019-09-24 22:00:00 15.7 22 Sudoeste 34 Sudoeste 0 -- -- 90
2019-09-24 21:00:00 15.7 17 Sudoeste 30 Sudoeste 0 -- -- 88
2019-09-24 20:00:00 16.3 21 Sudoeste 35 Sudoeste 0 -- -- 85
2019-09-24 19:00:00 16.2 21 Sudoeste 39 Oeste 0 -- -- 86
2019-09-24 18:00:00 18.3 23 Oeste 38 Sudoeste 0 -- -- 75
2019-09-24 17:00:00 17.1 18 Sudoeste 38 Sudoeste 0 -- -- 83
2019-09-24 16:00:00 17.8 25 Sudoeste 38 Oeste 0 -- -- 74
2019-09-24 15:00:00 17.6 23 Sudoeste 40 Sudoeste 0 -- -- 70
2019-09-24 14:00:00 17.6 21 Sudoeste 35 Sudoeste 0 -- -- 72
2019-09-24 13:00:00 16 23 Sudoeste 36 Sudoeste 0 -- -- 72
2019-09-24 12:00:00 15.5 25 Sudoeste 38 Sudoeste 0 -- -- 71
2019-09-24 11:00:00 14.1 23 Sudoeste 38 Sudoeste 0 -- -- 77
2019-09-24 10:00:00 13.3 24 Sudoeste 37 Sudoeste 0 -- -- 76
2019-09-24 09:00:00 12.2 22 Sudoeste 35 Sur 0 -- -- 76
2019-09-24 08:00:00 11.5 24 Sudoeste 35 Sudoeste 0 -- -- 81
2019-09-24 07:00:00 11.4 23 Sudoeste 30 Sudoeste 0 -- -- 82
2019-09-24 06:00:00 12 21 Sudoeste 29 Sudoeste 0 -- -- 79
2019-09-24 05:00:00 12.4 20 Sudoeste 30 Sudoeste 0 -- -- 77
2019-09-24 04:00:00 12.8 18 Sudoeste 30 Sudoeste 0 -- -- 73
2019-09-24 03:00:00 13.6 21 Sudoeste 30 Sudoeste 0 -- -- 68
2019-09-24 02:00:00 14.3 17 Sudoeste 24 Sudoeste 0 -- -- 64
2019-09-24 01:00:00 15 17 Sudoeste 27 Sudoeste 0 -- -- 62
2019-09-24 00:00:00 15.4 18 Sudoeste 28 Sudoeste 0 -- -- 61
2019-09-23 23:00:00 14.9 15 Sudoeste 19 Sudoeste 0 -- -- 62
2019-09-23 22:00:00 14.6 12 Sudoeste 17 Sudoeste 0 -- -- 64
2019-09-23 21:00:00 15.2 9 Sudoeste 13 Sudoeste 0 -- -- 62
2019-09-23 20:00:00 17.5 8 Oeste 20 Sudoeste 0 -- -- 57
2019-09-23 19:00:00 19.2 14 Sudoeste 25 Sudoeste 0 -- -- 50
2019-09-23 18:00:00 18.9 15 Oeste 24 Sudoeste 0 -- -- 52
2019-09-23 17:00:00 19.2 15 Oeste 26 Sudoeste 0 -- -- 48
2019-09-23 16:00:00 18.2 13 Sudoeste 27 Sudoeste 0 -- -- 54
2019-09-23 15:00:00 17.7 16 Oeste 23 Oeste 0 -- -- 57
2019-09-23 14:00:00 17 12 Oeste 24 Sudoeste 0 -- -- 59
2019-09-23 13:00:00 15.8 12 Sudoeste 19 Sudoeste 0 -- -- 61
2019-09-23 12:00:00 14.5 10 Sudoeste 15 Sudoeste 0 -- -- 69
2019-09-23 11:00:00 14 9 Sur 15 Sudoeste 0 -- -- 72
2019-09-23 10:00:00 12.1 9 Sudoeste 14 Sudoeste 0 -- -- 79
2019-09-23 09:00:00 10 10 Sur 14 Sur 0 -- -- 85
2019-09-23 08:00:00 9 11 Sur 14 Sur 0 -- -- 87
2019-09-23 07:00:00 9.2 9 Sudoeste 14 Sur 0 -- -- 85
2019-09-23 06:00:00 9.4 9 Sudoeste 13 Sudoeste 0 -- -- 83
2019-09-23 05:00:00 9.5 10 Sudoeste 16 Sur 0 -- -- 81
2019-09-23 04:00:00 9.9 12 Sudoeste 17 Sudoeste 0 -- -- 78
2019-09-23 03:00:00 10.3 9 Sudoeste 15 Sudoeste 0 -- -- 77
2019-09-23 02:00:00 11.1 10 Sudoeste 15 Sudoeste 0 -- -- 72
2019-09-23 01:00:00 10.9 10 Sudoeste 13 Sudoeste 0 -- -- 72
2019-09-23 00:00:00 10.9 7 Sudoeste 13 Sudoeste 0 -- -- 74
2019-09-22 23:00:00 11.5 10 Sudoeste 14 Sudoeste 0 -- -- 75
2019-09-22 22:00:00 12 10 Sudoeste 13 Sudoeste 0 -- -- 76
2019-09-22 21:00:00 12.9 8 Sudoeste 22 Oeste 0 -- -- 74
2019-09-22 20:00:00 14.7 12 Oeste 24 Oeste 0 -- -- 64
2019-09-22 19:00:00 15.4 14 Oeste 31 Oeste 0 -- -- 62
2019-09-22 18:00:00 16.1 20 Oeste 34 Sudoeste 0 -- -- 60
2019-09-22 17:00:00 16 17 Oeste 28 Oeste 0 -- -- 67
2019-09-22 16:00:00 14.9 14 Oeste 28 Oeste 0 -- -- 73
2019-09-22 15:00:00 14.4 15 Oeste 30 Sudoeste 0 -- -- 74
2019-09-22 14:00:00 13.8 20 Oeste 31 Oeste 0 -- -- 76
2019-09-22 13:00:00 12 13 Oeste 24 Oeste 0 -- -- 89
2019-09-22 12:00:00 11.4 15 Oeste 27 Sudoeste 0 -- -- 96
2019-09-22 11:00:00 10.6 14 Sudoeste 28 Sudoeste 0 -- -- 100
2019-09-22 10:00:00 9.9 15 Sudoeste 24 Sudoeste 0 -- -- 100
2019-09-22 09:00:00 9.7 13 Sudoeste 20 Sudoeste 0.2 -- -- 99
2019-09-22 08:00:00 9.6 15 Sudoeste 22 Sudoeste 0.6 -- -- 99
2019-09-22 07:00:00 9.6 17 Sudoeste 27 Sudoeste 1.4 -- -- 99
2019-09-22 06:00:00 9.8 12 Sudoeste 27 Oeste 2.4 -- -- 98
2019-09-22 05:00:00 10.7 15 Oeste 41 Oeste 1.2 -- -- 97
2019-09-22 04:00:00 15 15 Sur 36 Sudoeste 0 -- -- 85
2019-09-22 03:00:00 14.9 19 Sur 29 Sur 0 -- -- 83
2019-09-22 02:00:00 15.8 17 Sur 32 Sudoeste 0 -- -- 76
2019-09-22 01:00:00 15.6 21 Sudoeste 35 Sudoeste 0 -- -- 76
2019-09-22 00:00:00 15.3 21 Sudoeste 39 Sudoeste 0 -- -- 78
2019-09-21 23:00:00 15.1 22 Sudoeste 38 Sudoeste 0 -- -- 81
2019-09-21 22:00:00 15.3 21 Sudoeste 39 Sudoeste 0.2 -- -- 80
2019-09-21 21:00:00 15.7 16 Sur 29 Sur 0 -- -- 83
2019-09-21 20:00:00 15.1 16 Sur 25 Sur 0 -- -- 88
2019-09-21 19:00:00 15.7 17 Sur 30 Sur 0 -- -- 84
2019-09-21 18:00:00 15 13 Sur 31 Sudoeste 0.2 -- -- 89
2019-09-21 17:00:00 15.9 10 Sudoeste 36 Sudoeste 0.2 -- -- 89
2019-09-21 16:00:00 16.6 15 Sudoeste 30 Sudoeste 0.2 -- -- 80
2019-09-21 15:00:00 17.2 21 Sudoeste 38 Sudoeste 0 -- -- 71
2019-09-21 14:00:00 18.4 19 Sudoeste 35 Sudoeste 0 -- -- 62
2019-09-21 13:00:00 17.7 22 Sudoeste 42 Sudoeste 0 -- -- 64
2019-09-21 12:00:00 17.2 21 Sudoeste 41 Sudoeste 0 -- -- 66
2019-09-21 11:00:00 17.2 21 Sudoeste 33 Sur 0 -- -- 63
2019-09-21 10:00:00 15.9 19 Sudoeste 29 Sudoeste 0 -- -- 69
2019-09-21 09:00:00 13.8 17 Sur 27 Sur 0 -- -- 77
2019-09-21 08:00:00 13.2 18 Sudoeste 27 Sudoeste 0 -- -- 81
2019-09-21 07:00:00 13.4 17 Sudoeste 25 Sur 0 -- -- 83
2019-09-21 06:00:00 14.1 18 Sudoeste 34 Sur 0 -- -- 81
2019-09-21 05:00:00 14.7 17 Sur 36 Sur 0 -- -- 80
2019-09-21 04:00:00 14.2 23 Sur 37 Sur 0 -- -- 82
2019-09-21 03:00:00 14.7 23 Sur 35 Sudeste 0 -- -- 82
2019-09-21 02:00:00 15 18 Sur 27 Sudeste 0 -- -- 76
2019-09-21 01:00:00 14 19 Sudeste 40 Sudeste 0 -- -- 81
2019-09-21 00:00:00 13.6 29 Sudeste 48 Sudeste 0 -- -- 85
2019-09-20 23:00:00 14.1 28 Sudeste 48 Sur 0.6 -- -- 79
2019-09-20 22:00:00 16.7 30 Sur 47 Sur 0 -- -- 65
2019-09-20 21:00:00 18.5 19 Sur 31 Sur 0 -- -- 71
2019-09-20 20:00:00 19.1 16 Sur 36 Sudeste 0 -- -- 65
2019-09-20 19:00:00 20.9 22 Sur 36 Sur 0 -- -- 59
2019-09-20 18:00:00 22.4 22 Sur 40 Sur 0 -- -- 53
2019-09-20 17:00:00 21.8 23 Sur 38 Sur 0 -- -- 57
2019-09-20 16:00:00 22.3 25 Sur 37 Sur 0 -- -- 57
2019-09-20 15:00:00 22.5 13 Sur 28 Sudeste 0 -- -- 52
2019-09-20 14:00:00 22.6 13 Sur 27 Sudeste 0 -- -- 54
2019-09-20 13:00:00 21.9 15 Sur 31 Sur 0 -- -- 56
2019-09-20 12:00:00 20.9 22 Sur 39 Sur 0 -- -- 58
2019-09-20 11:00:00 19.6 23 Sudeste 35 Sudeste 0 -- -- 66
2019-09-20 10:00:00 18.6 19 Sudeste 31 Sudeste 0 -- -- 68
2019-09-20 09:00:00 17.6 21 Sudeste 30 Sudeste 0 -- -- 71
2019-09-20 08:00:00 16.4 18 Sudeste 30 Sudeste 0 -- -- 75
2019-09-20 07:00:00 17 22 Sudeste 29 Sudeste 0 -- -- 73
2019-09-20 06:00:00 17.2 20 Sudeste 28 Sudeste 0 -- -- 71
2019-09-20 05:00:00 17.5 19 Sudeste 33 Sudeste 0 -- -- 69
2019-09-20 04:00:00 17.5 21 Sur 32 Sudeste 0 -- -- 69
2019-09-20 03:00:00 17.9 21 Sudeste 30 Sudeste 0 -- -- 65
2019-09-20 02:00:00 18.3 16 Sur 23 Sur 0 -- -- 59
2019-09-20 01:00:00 18.5 16 Sudeste 19 Sudeste 0 -- -- 59
2019-09-20 00:00:00 18 12 Sudeste 16 Sudeste 0 -- -- 60
2019-09-19 23:00:00 17.9 10 Sudeste 13 Sudeste 0 -- -- 58
2019-09-19 22:00:00 16.8 7 Sudeste 12 Sudeste 0 -- -- 65
2019-09-19 21:00:00 18.4 5 Sur 10 Sur 0 -- -- 60
2019-09-19 20:00:00 20.6 4 Sudeste 17 Sur 0 -- -- 55
2019-09-19 19:00:00 23.3 6 Noroeste 15 Oeste 0 -- -- 44
2019-09-19 18:00:00 23.7 6 Noroeste 17 Noroeste 0 -- -- 44
2019-09-19 17:00:00 23.4 7 Noroeste 18 Oeste 0 -- -- 47
2019-09-19 16:00:00 23.1 10 Oeste 22 Sudoeste 0 -- -- 47
2019-09-19 15:00:00 22.7 11 Sudoeste 23 Oeste 0 -- -- 50
2019-09-19 14:00:00 21.2 4 Norte 14 Noroeste 0 -- -- 58
2019-09-19 13:00:00 20.8 5 Noroeste 13 Oeste 0 -- -- 63
2019-09-19 12:00:00 20.4 5 Norte 10 Oeste 0 -- -- 65
2019-09-19 11:00:00 19.5 4 Sudoeste 8 Oeste 0 -- -- 65
2019-09-19 10:00:00 18.3 0 Calma -- -- 0 -- -- 71
2019-09-19 09:00:00 15.8 0 Calma 3 Sur 0 -- -- 82
2019-09-19 08:00:00 14.8 2 Sudeste 5 Este 0 -- -- 77
2019-09-19 07:00:00 13.6 0 Calma 4 Sur 0 -- -- 81
2019-09-19 06:00:00 15.1 4 Sur 5 Sur 0 -- -- 76
2019-09-19 05:00:00 14.2 0 Calma 5 Sudeste 0 -- -- 80
2019-09-19 04:00:00 15.1 4 Sudeste 5 Sudeste 0 -- -- 76
2019-09-19 03:00:00 14.4 6 Sudeste 7 Sudeste 0 -- -- 80
2019-09-19 02:00:00 14.4 0 Calma 6 Sudeste 0 -- -- 79
2019-09-19 01:00:00 14.9 5 Sudeste 14 Sudeste 0 -- -- 77
2019-09-19 00:00:00 15.6 9 Sudeste 12 Sudeste 0 -- -- 76